createdAt,value
2019-02-24T00:01:12.532Z,7.60
2019-02-24T00:03:41.247Z,8.50
2019-02-24T00:06:09.888Z,9.40
2019-02-24T00:08:38.516Z,10.27
2019-02-24T00:11:07.181Z,9.43
2019-02-24T00:13:35.803Z,8.75
2019-02-24T00:16:04.439Z,9.10
2019-02-24T00:18:33.075Z,7.17
2019-02-24T00:21:02.675Z,7.73
2019-02-24T00:23:31.363Z,8.93
2019-02-24T00:25:59.984Z,8.50
2019-02-24T00:28:28.611Z,9.40
2019-02-24T00:30:57.991Z,8.15
2019-02-24T00:33:26.634Z,9.48
2019-02-24T00:35:55.255Z,9.15
2019-02-24T00:38:23.911Z,9.43
2019-02-24T00:40:53.233Z,10.03
2019-02-24T00:43:21.871Z,8.90
2019-02-24T00:45:51.130Z,8.48
2019-02-24T00:48:19.782Z,10.70
2019-02-24T00:50:48.455Z,10.15
2019-02-24T00:53:17.111Z,9.10
2019-02-24T00:55:45.767Z,9.77
2019-02-24T00:58:16.425Z,9.50
2019-02-24T01:00:44.731Z,9.83
2019-02-24T01:03:13.351Z,9.83
2019-02-24T01:05:42.067Z,8.57
2019-02-24T01:08:10.935Z,9.37
2019-02-24T01:10:39.636Z,8.73
2019-02-24T01:13:08.279Z,9.70
2019-02-24T01:15:36.971Z,9.03
2019-02-24T01:18:05.595Z,10.00
2019-02-24T01:20:34.248Z,9.63
2019-02-24T01:23:02.947Z,9.28
2019-02-24T01:25:32.022Z,8.93
2019-02-24T01:28:00.671Z,8.73
2019-02-24T01:30:29.308Z,9.80
2019-02-24T01:32:57.935Z,9.33
2019-02-24T01:35:26.571Z,8.33
2019-02-24T01:37:55.187Z,9.57
2019-02-24T01:40:23.811Z,8.90
2019-02-24T01:42:52.438Z,9.30
2019-02-24T01:45:21.291Z,8.73
2019-02-24T01:47:50.023Z,8.65
2019-02-24T01:50:18.740Z,8.55
2019-02-24T01:52:47.355Z,9.87
2019-02-24T01:55:16.014Z,10.23
2019-02-24T01:57:44.722Z,8.98
2019-02-24T02:00:13.743Z,8.68
2019-02-24T02:02:42.387Z,9.00
2019-02-24T02:05:11.059Z,8.98
2019-02-24T02:07:39.676Z,8.23
2019-02-24T02:10:08.415Z,8.60
2019-02-24T02:12:37.162Z,8.18
2019-02-24T02:15:05.991Z,7.90
2019-02-24T02:17:34.744Z,9.68
2019-02-24T02:20:03.423Z,8.58
2019-02-24T02:22:32.904Z,9.00
2019-02-24T02:25:01.613Z,8.53
2019-02-24T02:27:30.263Z,9.00
2019-02-24T02:29:58.880Z,8.57
2019-02-24T02:32:28.495Z,8.33
2019-02-24T02:34:57.132Z,7.83
2019-02-24T02:37:25.764Z,6.90
2019-02-24T02:39:54.391Z,9.03
2019-02-24T02:42:23.035Z,7.90
2019-02-24T02:44:51.720Z,7.67
2019-02-24T02:47:21.091Z,8.90
2019-02-24T02:49:49.737Z,9.15
2019-02-24T02:52:18.349Z,8.50
2019-02-24T02:54:47.059Z,9.73
2019-02-24T02:57:15.690Z,8.60
2019-02-24T02:59:44.315Z,8.83
2019-02-24T03:02:12.963Z,8.18
2019-02-24T03:04:41.607Z,13.60
2019-02-24T03:07:18.000Z,9.25
2019-02-24T03:09:46.620Z,8.93
2019-02-24T03:12:15.251Z,11.40
2019-02-24T03:14:43.910Z,8.43
2019-02-24T03:17:12.539Z,8.63
2019-02-24T03:19:42.743Z,8.70
2019-02-24T03:22:11.394Z,9.70
2019-02-24T03:24:40.007Z,7.63
2019-02-24T03:27:08.618Z,8.10
2019-02-24T03:29:37.268Z,9.47
2019-02-24T03:32:06.060Z,8.80
2019-02-24T03:34:34.762Z,8.60
2019-02-24T03:37:03.407Z,8.27
2019-02-24T03:39:32.055Z,9.83
2019-02-24T03:42:00.682Z,8.70
2019-02-24T03:44:29.295Z,7.97
2019-02-24T03:46:58.028Z,8.08
2019-02-24T03:49:26.660Z,9.10
2019-02-24T03:51:55.306Z,8.60
2019-02-24T03:54:24.101Z,7.47
2019-02-24T03:56:52.711Z,6.97
2019-02-24T03:59:21.487Z,6.60
2019-02-24T04:01:50.230Z,9.17
2019-02-24T04:04:18.859Z,9.74
2019-02-24T04:06:47.488Z,9.25
2019-02-24T04:09:16.149Z,8.97
2019-02-24T04:11:44.768Z,8.10
2019-02-24T04:14:14.029Z,8.25
2019-02-24T04:16:42.687Z,8.08
2019-02-24T04:19:11.343Z,7.47
2019-02-24T04:21:40.003Z,9.03
2019-02-24T04:24:09.175Z,9.00
2019-02-24T04:26:37.823Z,9.13
2019-02-24T04:29:06.465Z,9.08
2019-02-24T04:31:35.091Z,9.58
2019-02-24T04:34:04.063Z,9.13
2019-02-24T04:36:32.679Z,8.57
2019-02-24T04:39:01.340Z,8.55
2019-02-24T04:41:31.648Z,6.47
2019-02-24T04:44:00.267Z,8.02
2019-02-24T04:46:28.907Z,8.30
2019-02-24T04:48:57.534Z,8.18
2019-02-24T04:51:26.622Z,8.70
2019-02-24T04:53:55.366Z,8.55
2019-02-24T04:56:24.083Z,9.23
2019-02-24T04:58:53.107Z,9.10
2019-02-24T05:01:21.844Z,8.80
2019-02-24T05:03:50.532Z,8.67
2019-02-24T05:06:19.236Z,8.60
2019-02-24T05:08:47.983Z,8.50
2019-02-24T05:11:16.623Z,8.55
2019-02-24T05:13:45.250Z,9.03
2019-02-24T05:16:13.983Z,9.13
2019-02-24T05:18:42.625Z,8.08
2019-02-24T05:21:11.260Z,6.95
2019-02-24T05:23:39.871Z,7.28
2019-02-24T05:26:08.515Z,7.90
2019-02-24T05:28:38.843Z,8.95
2019-02-24T05:31:07.478Z,8.65
2019-02-24T05:33:36.107Z,8.13
2019-02-24T05:36:04.749Z,8.93
2019-02-24T05:38:33.363Z,8.90
2019-02-24T05:41:01.991Z,7.77
2019-02-24T05:43:30.719Z,8.70
2019-02-24T05:45:59.427Z,7.80
2019-02-24T05:48:28.052Z,6.62
2019-02-24T05:50:56.719Z,9.53
2019-02-24T05:53:25.419Z,9.25
2019-02-24T05:55:54.539Z,8.87
2019-02-24T05:58:23.259Z,8.50
2019-02-24T06:00:51.879Z,8.10
2019-02-24T06:03:20.505Z,6.90
2019-02-24T06:05:49.532Z,8.10
2019-02-24T06:08:18.235Z,8.68
2019-02-24T06:10:46.850Z,8.45
2019-02-24T06:13:15.483Z,8.70
2019-02-24T06:15:44.123Z,8.35
2019-02-24T06:18:12.763Z,8.23
2019-02-24T06:20:41.384Z,8.73
2019-02-24T06:23:10.207Z,8.75
2019-02-24T06:25:38.864Z,8.53
2019-02-24T06:28:07.488Z,7.60
2019-02-24T06:30:36.111Z,8.53
2019-02-24T06:33:04.763Z,9.07
2019-02-24T06:35:33.655Z,8.13
2019-02-24T06:38:02.363Z,8.35
2019-02-24T06:40:31.003Z,8.70
2019-02-24T06:42:59.695Z,8.48
2019-02-24T06:45:28.319Z,8.30
2019-02-24T06:47:56.957Z,8.33
2019-02-24T06:50:35.103Z,9.07
2019-02-24T06:52:59.019Z,8.90
2019-02-24T06:55:27.643Z,8.67
2019-02-24T06:57:56.286Z,8.23
2019-02-24T07:00:24.983Z,7.37
2019-02-24T07:02:53.623Z,7.73
2019-02-24T07:05:22.301Z,7.90
2019-02-24T07:07:51.087Z,8.33
2019-02-24T07:10:20.312Z,8.38
2019-02-24T07:12:48.971Z,8.90
2019-02-24T07:15:17.599Z,8.45
2019-02-24T07:17:47.040Z,8.10
2019-02-24T07:20:15.715Z,7.35
2019-02-24T07:22:44.343Z,7.57
2019-02-24T07:25:12.958Z,7.83
2019-02-24T07:27:41.612Z,8.70
2019-02-24T07:30:10.827Z,8.20
2019-02-24T07:32:39.479Z,7.83
2019-02-24T07:35:08.124Z,8.35
2019-02-24T07:37:37.188Z,8.13
2019-02-24T07:40:05.811Z,7.78
2019-02-24T07:42:34.506Z,8.68
2019-02-24T07:45:03.132Z,9.13
2019-02-24T07:47:31.835Z,8.30
2019-02-24T07:50:00.567Z,7.70
2019-02-24T07:52:29.255Z,7.78
2019-02-24T07:54:57.866Z,8.97
2019-02-24T07:57:26.543Z,10.53
2019-02-24T07:59:56.244Z,9.03
2019-02-24T08:02:25.111Z,8.30
2019-02-24T08:04:53.751Z,8.57
2019-02-24T08:07:22.480Z,9.13
2019-02-24T08:09:51.103Z,8.55
2019-02-24T08:12:19.767Z,8.67
2019-02-24T08:14:48.400Z,7.87
2019-02-24T08:17:17.024Z,8.38
2019-02-24T08:19:45.659Z,9.03
2019-02-24T08:22:15.243Z,8.23
2019-02-24T08:24:43.892Z,8.63
2019-02-24T08:27:12.508Z,8.27
2019-02-24T08:29:41.215Z,8.20
2019-02-24T08:32:09.871Z,8.73
2019-02-24T08:34:38.507Z,8.37
2019-02-24T08:37:07.131Z,9.17
2019-02-24T08:39:36.457Z,8.25
2019-02-24T08:42:05.098Z,8.88
2019-02-24T08:44:33.716Z,7.87
2019-02-24T08:47:02.573Z,8.30
2019-02-24T08:49:31.278Z,8.38
2019-02-24T08:51:59.903Z,9.17
2019-02-24T08:54:28.667Z,8.68
2019-02-24T08:56:57.291Z,8.35
2019-02-24T08:59:25.939Z,8.63
2019-02-24T09:01:54.587Z,7.10
2019-02-24T09:04:23.275Z,8.05
2019-02-24T09:06:51.920Z,8.20
2019-02-24T09:09:20.556Z,8.23
2019-02-24T09:11:49.187Z,7.90
2019-02-24T09:14:17.852Z,8.70
2019-02-24T09:16:46.515Z,7.95
2019-02-24T09:19:15.218Z,7.40
2019-02-24T09:21:43.935Z,6.85
2019-02-24T09:24:12.558Z,6.40
2019-02-24T09:26:41.171Z,7.30
2019-02-24T09:29:09.852Z,7.30
2019-02-24T09:31:38.488Z,7.80
2019-02-24T09:34:07.192Z,7.55
2019-02-24T09:36:35.839Z,6.90
2019-02-24T09:39:04.895Z,6.92
2019-02-24T09:41:34.216Z,7.80
2019-02-24T09:44:02.987Z,7.33
2019-02-24T09:46:31.615Z,7.53
2019-02-24T09:49:00.275Z,6.53
2019-02-24T09:51:29.043Z,6.15
2019-02-24T09:53:57.664Z,6.93
2019-02-24T09:56:26.295Z,6.47
2019-02-24T09:58:55.907Z,7.07
2019-02-24T10:01:24.940Z,7.92
2019-02-24T10:03:54.556Z,8.10
2019-02-24T10:06:23.191Z,6.70
2019-02-24T10:08:51.859Z,6.80
2019-02-24T10:11:20.504Z,5.70
2019-02-24T10:13:51.152Z,6.40
2019-02-24T10:16:19.538Z,5.40
2019-02-24T10:18:48.156Z,4.75
2019-02-24T10:21:16.771Z,4.25
2019-02-24T10:23:46.127Z,7.05
2019-02-24T10:26:14.759Z,5.80
2019-02-24T10:28:43.403Z,6.50
2019-02-24T10:31:19.622Z,5.96
2019-02-24T10:33:42.870Z,6.03
2019-02-24T10:36:11.513Z,5.73
2019-02-24T10:38:40.179Z,5.58
2019-02-24T10:41:08.816Z,4.03
2019-02-24T10:43:37.540Z,5.07
2019-02-24T10:46:06.219Z,4.85
2019-02-24T10:48:34.847Z,6.20
2019-02-24T10:51:03.467Z,4.08
2019-02-24T10:53:32.104Z,4.75
2019-02-24T10:56:01.099Z,5.27
2019-02-24T10:58:34.800Z,3.03
2019-02-24T11:01:00.515Z,6.25
2019-02-24T11:03:29.204Z,5.60
2019-02-24T11:05:57.839Z,4.37
2019-02-24T11:08:26.487Z,5.47
2019-02-24T11:10:55.179Z,3.70
2019-02-24T11:13:23.972Z,5.00
2019-02-24T11:15:52.659Z,6.30
2019-02-24T11:18:21.284Z,3.33
2019-02-24T11:20:49.915Z,3.70
2019-02-24T11:23:18.983Z,3.70
2019-02-24T11:25:47.719Z,2.37
2019-02-24T11:28:16.367Z,1.40
2019-02-24T11:30:44.991Z,4.47
2019-02-24T11:33:13.627Z,5.37
2019-02-24T11:35:43.643Z,4.55
2019-02-24T11:38:12.356Z,6.10
2019-02-24T11:40:40.959Z,6.03
2019-02-24T11:43:09.613Z,5.15
2019-02-24T11:45:38.295Z,4.33
2019-02-24T11:48:06.996Z,5.23
2019-02-24T11:50:35.635Z,5.03
2019-02-24T11:53:04.259Z,5.33
2019-02-24T11:55:32.925Z,5.30
2019-02-24T11:58:01.543Z,5.50
2019-02-24T12:00:32.674Z,5.80
2019-02-24T12:03:03.129Z,5.17
2019-02-24T12:05:32.439Z,5.35
2019-02-24T12:08:01.176Z,5.53
2019-02-24T12:10:29.798Z,4.60
2019-02-24T12:12:58.415Z,6.00
2019-02-24T12:15:27.047Z,5.53
2019-02-24T12:17:55.681Z,5.90
2019-02-24T12:20:24.411Z,6.60
2019-02-24T12:22:53.023Z,5.55
2019-02-24T12:25:21.723Z,6.00
2019-02-24T12:27:50.369Z,6.33
2019-02-24T12:30:19.322Z,5.03
2019-02-24T12:32:47.948Z,6.00
2019-02-24T12:35:16.603Z,4.57
2019-02-24T12:37:45.339Z,6.22
2019-02-24T12:40:14.971Z,5.28
2019-02-24T12:42:43.584Z,5.43
2019-02-24T12:45:12.204Z,4.77
2019-02-24T12:47:40.910Z,5.57
2019-02-24T12:50:09.758Z,4.80
2019-02-24T12:52:38.367Z,6.10
2019-02-24T12:55:07.169Z,5.10
2019-02-24T12:57:35.787Z,5.72
2019-02-24T13:00:04.811Z,5.40
2019-02-24T13:02:33.835Z,5.90
2019-02-24T13:05:02.477Z,5.80
2019-02-24T13:07:31.155Z,4.65
2019-02-24T13:09:59.811Z,4.53
2019-02-24T13:12:28.483Z,4.07
2019-02-24T13:14:57.155Z,5.30
2019-02-24T13:17:26.184Z,3.70
2019-02-24T13:19:54.828Z,5.70
2019-02-24T13:22:23.459Z,4.60
2019-02-24T13:24:52.090Z,4.97
2019-02-24T13:27:20.735Z,5.00
2019-02-24T13:29:49.427Z,4.67
2019-02-24T13:32:18.134Z,5.22
2019-02-24T13:34:46.776Z,5.12
2019-02-24T13:37:15.395Z,4.17
2019-02-24T13:39:44.112Z,5.63
2019-02-24T13:42:12.825Z,5.28
2019-02-24T13:44:41.451Z,5.03
2019-02-24T13:47:10.154Z,5.83
2019-02-24T13:49:38.783Z,5.33
2019-02-24T13:52:07.531Z,4.55
2019-02-24T13:54:36.215Z,5.00
2019-02-24T13:57:04.826Z,4.37
2019-02-24T13:59:33.892Z,4.28
2019-02-24T14:02:02.507Z,3.40
2019-02-24T14:04:31.122Z,4.77
2019-02-24T14:06:59.960Z,3.15
2019-02-24T14:09:28.608Z,2.27
2019-02-24T14:11:57.227Z,1.87
2019-02-24T14:14:25.863Z,3.65
2019-02-24T14:16:54.500Z,3.47
2019-02-24T14:19:23.119Z,3.90
2019-02-24T14:21:51.746Z,3.62
2019-02-24T14:24:21.359Z,4.27
2019-02-24T14:26:51.114Z,3.27
2019-02-24T14:29:19.739Z,3.70
2019-02-24T14:31:48.456Z,3.50
2019-02-24T14:34:17.067Z,2.80
2019-02-24T14:36:46.231Z,3.80
2019-02-24T14:39:14.875Z,3.47
2019-02-24T14:41:43.651Z,3.47
2019-02-24T14:44:12.384Z,3.30
2019-02-24T14:46:41.033Z,3.42
2019-02-24T14:49:09.739Z,2.80
2019-02-24T14:51:38.367Z,2.45
2019-02-24T14:54:07.070Z,2.95
2019-02-24T14:56:35.682Z,3.00
2019-02-24T14:59:05.620Z,2.93
2019-02-24T15:01:34.335Z,2.90
2019-02-24T15:04:02.968Z,2.27
2019-02-24T15:06:31.603Z,2.83
2019-02-24T15:09:00.328Z,3.43
2019-02-24T15:11:28.991Z,2.37
2019-02-24T15:13:57.987Z,2.40
2019-02-24T15:16:26.615Z,2.53
2019-02-24T15:18:55.271Z,2.30
2019-02-24T15:21:23.887Z,2.45
2019-02-24T15:23:52.591Z,2.77
2019-02-24T15:26:21.221Z,2.90
2019-02-24T15:28:49.831Z,2.90
2019-02-24T15:31:18.455Z,2.98
2019-02-24T15:33:47.081Z,2.70
2019-02-24T15:36:15.703Z,2.30
2019-02-24T15:38:44.340Z,2.70
2019-02-24T15:41:13.385Z,2.50
2019-02-24T15:43:42.028Z,2.63
2019-02-24T15:46:11.379Z,2.40
2019-02-24T15:48:39.946Z,2.03
2019-02-24T15:51:08.608Z,2.60
2019-02-24T15:53:38.263Z,2.47
2019-02-24T15:56:06.898Z,2.20
2019-02-24T15:58:35.535Z,2.22
2019-02-24T16:01:05.163Z,2.03
2019-02-24T16:03:33.783Z,2.30
2019-02-24T16:06:02.512Z,2.27
2019-02-24T16:08:31.184Z,2.50
2019-02-24T16:10:59.815Z,1.98
2019-02-24T16:13:28.455Z,2.27
2019-02-24T16:15:57.183Z,2.40
2019-02-24T16:18:26.775Z,2.20
2019-02-24T16:20:55.415Z,1.82
2019-02-24T16:23:24.037Z,2.62
2019-02-24T16:25:52.679Z,2.77
2019-02-24T16:28:21.335Z,2.03
2019-02-24T16:30:50.070Z,2.47
2019-02-24T16:33:18.679Z,2.60
2019-02-24T16:35:47.307Z,2.40
2019-02-24T16:38:15.979Z,2.47
2019-02-24T16:40:44.615Z,2.50
2019-02-24T16:43:13.235Z,3.08
2019-02-24T16:45:42.385Z,2.40
2019-02-24T16:48:11.063Z,2.80
2019-02-24T16:50:39.771Z,2.53
2019-02-24T16:53:08.495Z,3.00
2019-02-24T16:55:37.138Z,2.83
2019-02-24T16:58:05.763Z,2.33
2019-02-24T17:00:34.790Z,2.98
2019-02-24T17:03:03.500Z,2.90
2019-02-24T17:05:32.139Z,2.70
2019-02-24T17:08:00.839Z,2.97
2019-02-24T17:10:29.578Z,2.87
2019-02-24T17:12:59.174Z,2.87
2019-02-24T17:15:27.899Z,2.33
2019-02-24T17:17:56.567Z,3.20
2019-02-24T17:20:25.892Z,2.77
2019-02-24T17:22:54.531Z,2.67
2019-02-24T17:25:23.223Z,2.83
2019-02-24T17:27:51.859Z,2.50
2019-02-24T17:30:20.478Z,3.10
2019-02-24T17:32:49.099Z,2.83
2019-02-24T17:35:17.773Z,3.20
2019-02-24T17:37:46.484Z,3.87
2019-02-24T17:40:15.110Z,4.00
2019-02-24T17:42:43.870Z,4.03
2019-02-24T17:45:12.792Z,3.97
2019-02-24T17:47:41.442Z,3.90
2019-02-24T17:50:10.703Z,4.50
2019-02-24T17:52:39.487Z,3.72
2019-02-24T17:55:09.381Z,3.77
2019-02-24T17:57:38.091Z,3.58
2019-02-24T18:00:09.403Z,3.30
2019-02-24T18:02:38.559Z,3.67
2019-02-24T18:05:07.226Z,3.98
2019-02-24T18:07:35.919Z,3.63
2019-02-24T18:10:04.887Z,3.77
2019-02-24T18:12:33.500Z,3.85
2019-02-24T18:15:02.148Z,4.63
2019-02-24T18:17:31.628Z,4.77
2019-02-24T18:20:00.951Z,4.25
2019-02-24T18:22:29.571Z,4.22
2019-02-24T18:25:03.211Z,3.77
2019-02-24T18:27:28.463Z,4.40
2019-02-24T18:29:57.083Z,4.70
2019-02-24T18:32:25.747Z,4.62
2019-02-24T18:34:54.518Z,4.95
2019-02-24T18:37:23.132Z,5.73
2019-02-24T18:39:51.869Z,5.40
2019-02-24T18:42:20.495Z,6.05
2019-02-24T18:44:50.095Z,5.93
2019-02-24T18:47:18.734Z,5.23
2019-02-24T18:49:47.359Z,5.47
2019-02-24T18:52:16.015Z,6.13
2019-02-24T18:54:44.639Z,6.35
2019-02-24T18:57:13.253Z,6.83
2019-02-24T18:59:41.875Z,6.95
2019-02-24T19:02:10.577Z,8.13
2019-02-24T19:04:39.299Z,10.60
2019-02-24T19:07:07.924Z,5.75
2019-02-24T19:09:36.496Z,6.00
2019-02-24T19:12:05.219Z,6.20
2019-02-24T19:14:33.827Z,6.57
2019-02-24T19:17:02.452Z,6.20
2019-02-24T19:19:31.107Z,6.67
2019-02-24T19:21:59.780Z,6.70
2019-02-24T19:24:28.471Z,7.00
2019-02-24T19:26:57.115Z,6.67
2019-02-24T19:29:25.733Z,6.30
2019-02-24T19:31:54.359Z,7.00
2019-02-24T19:34:23.007Z,5.97
2019-02-24T19:36:51.695Z,7.03
2019-02-24T19:39:20.318Z,6.30
2019-02-24T19:41:48.987Z,6.90
2019-02-24T19:44:17.641Z,7.00
2019-02-24T19:46:46.295Z,5.75
2019-02-24T19:49:14.955Z,7.67
2019-02-24T19:51:43.586Z,7.03
2019-02-24T19:54:12.246Z,6.12
2019-02-24T19:56:40.899Z,6.90
2019-02-24T19:59:09.547Z,8.13
2019-02-24T20:01:38.176Z,7.90
2019-02-24T20:04:15.791Z,7.60
2019-02-24T20:06:38.124Z,6.87
2019-02-24T20:09:06.795Z,6.23
2019-02-24T20:11:36.836Z,6.55
2019-02-24T20:14:05.448Z,6.47
2019-02-24T20:16:34.099Z,7.63
2019-02-24T20:19:02.962Z,7.87
2019-02-24T20:21:31.603Z,7.10
2019-02-24T20:24:01.307Z,6.30
2019-02-24T20:26:29.995Z,7.17
2019-02-24T20:28:58.660Z,7.22
2019-02-24T20:31:27.303Z,7.27
2019-02-24T20:33:56.352Z,7.53
2019-02-24T20:36:24.983Z,6.67
2019-02-24T20:38:53.596Z,6.58
2019-02-24T20:41:22.331Z,6.80
2019-02-24T20:43:50.999Z,7.47
2019-02-24T20:46:19.695Z,7.40
2019-02-24T20:48:48.680Z,7.03
2019-02-24T20:51:17.307Z,6.92
2019-02-24T20:53:46.011Z,7.40
2019-02-24T20:56:15.263Z,6.40
2019-02-24T20:58:43.895Z,7.50
2019-02-24T21:01:12.587Z,7.12
2019-02-24T21:03:41.228Z,6.85
2019-02-24T21:06:09.943Z,7.50
2019-02-24T21:08:38.573Z,7.37
2019-02-24T21:11:07.273Z,6.67
2019-02-24T21:13:35.936Z,7.20
2019-02-24T21:16:04.530Z,6.80
2019-02-24T21:18:33.247Z,6.08
2019-02-24T21:21:01.957Z,7.37
2019-02-24T21:23:30.766Z,8.03
2019-02-24T21:25:59.449Z,8.68
2019-02-24T21:28:28.251Z,7.62
2019-02-24T21:30:56.878Z,7.62
2019-02-24T21:33:25.503Z,7.95
2019-02-24T21:35:54.183Z,7.53
2019-02-24T21:38:22.819Z,7.45
2019-02-24T21:40:51.473Z,7.40
2019-02-24T21:43:20.174Z,8.80
2019-02-24T21:45:48.855Z,8.77
2019-02-24T21:48:17.527Z,9.25
2019-02-24T21:50:46.190Z,11.45
2019-02-24T21:53:14.849Z,13.90
2019-02-24T21:55:43.471Z,12.33
2019-02-24T21:58:12.338Z,9.83
2019-02-24T22:00:41.055Z,9.53
2019-02-24T22:03:09.680Z,8.78
2019-02-24T22:05:38.531Z,7.87
2019-02-24T22:08:07.171Z,9.00
2019-02-24T22:10:35.787Z,9.23
2019-02-24T22:13:04.427Z,8.36
2019-02-24T22:15:33.140Z,7.40
2019-02-24T22:18:01.784Z,8.60
2019-02-24T22:20:30.432Z,7.60
2019-02-24T22:22:59.076Z,7.75
2019-02-24T22:25:28.050Z,8.45
2019-02-24T22:27:56.674Z,8.27
2019-02-24T22:30:25.312Z,8.43
2019-02-24T22:32:53.987Z,9.20
2019-02-24T22:35:22.679Z,8.33
2019-02-24T22:37:51.323Z,9.00
2019-02-24T22:40:19.984Z,8.00
2019-02-24T22:42:48.618Z,8.63
2019-02-24T22:45:17.540Z,8.40
2019-02-24T22:47:46.171Z,9.78
2019-02-24T22:50:14.943Z,11.85
2019-02-24T22:52:43.587Z,12.45
2019-02-24T22:55:12.358Z,11.97
2019-02-24T22:57:41.260Z,9.60
2019-02-24T23:00:21.670Z,9.03
2019-02-24T23:02:52.011Z,8.48
2019-02-24T23:05:20.943Z,9.10
2019-02-24T23:07:49.949Z,8.47
2019-02-24T23:10:18.621Z,10.07
2019-02-24T23:12:47.235Z,8.83
2019-02-24T23:15:15.956Z,8.10
2019-02-24T23:17:44.586Z,8.80
2019-02-24T23:20:13.243Z,8.70
2019-02-24T23:22:41.860Z,8.33
2019-02-24T23:25:10.496Z,9.13
2019-02-24T23:27:39.207Z,8.83
2019-02-24T23:30:08.076Z,7.80
2019-02-24T23:32:36.703Z,8.53
2019-02-24T23:35:05.550Z,8.27
2019-02-24T23:37:34.203Z,9.47
2019-02-24T23:40:02.923Z,8.03
2019-02-24T23:42:32.591Z,8.43
2019-02-24T23:45:09.818Z,8.50
2019-02-24T23:47:31.629Z,7.80
2019-02-24T23:50:00.338Z,8.20
2019-02-24T23:52:29.003Z,8.17
2019-02-24T23:54:57.655Z,7.85
2019-02-24T23:57:26.296Z,7.97
2019-02-24T23:59:54.927Z,8.43
